Time;durP1;ratioP1;P1;durP2;ratioP2;P2;SDS_P1;SDS_P2;PMS_P1;PMS_P2;Temp;Humidity;BMP_temperature;BMP_pressure;BME280_temperature;BME280_humidity;BME280_pressure;Samples;Min_cycle;Max_cycle;Signal;HPM_P1;HPM_P2
2020/12/06 00:00:57;;;;;;;31.73;28.10;;;3.60;99.90;;;;;;4936181;28;20888;-81
2020/12/06 00:03:24;;;;;;;31.10;27.90;;;3.60;99.90;;;;;;4953346;28;20466;-81
2020/12/06 00:05:50;;;;;;;32.27;28.30;;;3.60;99.90;;;;;;4945048;28;20447;-82
2020/12/06 00:08:17;;;;;;;32.23;28.43;;;3.60;99.90;;;;;;4950937;28;20486;-81
2020/12/06 00:10:43;;;;;;;30.23;27.03;;;3.60;99.90;;;;;;4953573;28;20451;-81
2020/12/06 00:13:09;;;;;;;32.37;28.73;;;3.60;99.90;;;;;;4952575;28;21168;-81
2020/12/06 00:15:36;;;;;;;30.93;27.63;;;3.60;99.90;;;;;;4936031;28;20478;-82
2020/12/06 00:18:02;;;;;;;29.13;25.70;;;3.60;99.90;;;;;;4948298;29;20445;-81
2020/12/06 00:20:28;;;;;;;31.33;27.93;;;3.60;99.90;;;;;;4949876;28;20501;-82
2020/12/06 00:22:55;;;;;;;32.93;29.03;;;3.60;99.90;;;;;;4945165;28;20524;-81
2020/12/06 00:25:22;;;;;;;32.00;28.53;;;3.60;99.90;;;;;;4937048;28;20521;-81
2020/12/06 00:27:48;;;;;;;29.50;26.00;;;3.60;99.90;;;;;;4943543;28;20920;-81
2020/12/06 00:30:15;;;;;;;30.67;27.10;;;3.70;99.90;;;;;;4954372;28;20447;-81
2020/12/06 00:32:41;;;;;;;28.83;25.27;;;3.70;99.90;;;;;;4939451;28;20549;-81
2020/12/06 00:35:08;;;;;;;28.40;25.30;;;3.70;99.90;;;;;;4944133;28;20457;-81
2020/12/06 00:37:36;;;;;;;30.60;27.30;;;3.70;99.90;;;;;;4937272;28;20856;-81
2020/12/06 00:40:04;;;;;;;31.40;27.97;;;3.70;99.90;;;;;;4954173;28;20453;-81
2020/12/06 00:42:31;;;;;;;33.47;28.10;;;3.60;99.90;;;;;;4954745;28;20583;-81
2020/12/06 00:44:58;;;;;;;33.87;29.03;;;3.60;99.90;;;;;;4953156;28;20498;-82
2020/12/06 00:47:24;;;;;;;35.70;29.87;;;3.60;99.90;;;;;;4953080;28;20965;-81
2020/12/06 00:49:50;;;;;;;31.80;27.67;;;3.60;99.90;;;;;;4934902;28;20445;-82
2020/12/06 00:52:17;;;;;;;34.10;28.00;;;3.60;99.90;;;;;;4944331;28;20463;-81
2020/12/06 00:54:43;;;;;;;32.70;27.97;;;3.60;99.90;;;;;;4953291;28;20472;-81
2020/12/06 00:57:09;;;;;;;32.33;28.23;;;3.60;99.90;;;;;;4953153;29;20465;-81
2020/12/06 00:59:37;;;;;;;38.77;28.50;;;3.60;99.90;;;;;;4938323;28;20454;-81
2020/12/06 01:02:05;;;;;;;32.37;28.17;;;3.60;99.90;;;;;;4942287;28;20901;-81
2020/12/06 01:04:31;;;;;;;32.73;27.27;;;3.60;99.90;;;;;;4956889;28;20850;-81
2020/12/06 01:06:58;;;;;;;34.00;28.97;;;3.60;99.90;;;;;;4958110;28;20442;-81
2020/12/06 01:09:24;;;;;;;34.20;27.47;;;3.60;99.90;;;;;;4956746;28;20840;-81
2020/12/06 01:11:51;;;;;;;37.60;30.27;;;3.60;99.90;;;;;;4939548;28;20477;-82
2020/12/06 01:14:17;;;;;;;39.30;30.93;;;3.60;99.90;;;;;;4948686;28;20435;-81
2020/12/06 01:16:49;;;;;;;37.00;30.70;;;3.50;99.90;;;;;;4956030;28;20445;-82
2020/12/06 01:19:15;;;;;;;33.10;29.00;;;3.50;99.90;;;;;;4947048;29;20432;-81
2020/12/06 01:21:46;;;;;;;33.77;27.50;;;3.50;99.90;;;;;;4943206;28;20548;-81
2020/12/06 01:24:12;;;;;;;31.77;27.07;;;3.40;99.90;;;;;;4939361;29;20441;-81
2020/12/06 01:26:39;;;;;;;34.53;28.57;;;3.50;99.90;;;;;;4951721;28;20529;-81
2020/12/06 01:29:05;;;;;;;33.83;27.77;;;3.50;99.90;;;;;;4968410;28;21125;-83
2020/12/06 01:31:31;;;;;;;30.40;26.77;;;3.50;99.90;;;;;;4956253;28;20575;-82
2020/12/06 01:33:58;;;;;;;31.27;27.87;;;3.60;99.90;;;;;;4953309;28;20795;-82
2020/12/06 01:36:24;;;;;;;34.93;28.93;;;3.50;99.90;;;;;;4956818;28;20501;-81
2020/12/06 01:38:51;;;;;;;35.27;29.47;;;3.50;99.90;;;;;;4956782;28;20969;-81
2020/12/06 01:41:19;;;;;;;34.07;28.47;;;3.50;99.90;;;;;;4952546;28;20484;-81
2020/12/06 01:43:53;;;;;;;37.90;29.57;;;3.50;99.90;;;;;;4947760;29;20467;-81
2020/12/06 01:46:20;;;;;;;35.43;27.70;;;3.50;99.90;;;;;;4952368;28;20459;-81
2020/12/06 01:48:46;;;;;;;34.13;28.87;;;3.60;99.90;;;;;;4937149;28;20516;-81
2020/12/06 01:51:15;;;;;;;34.17;27.17;;;3.60;99.90;;;;;;4950764;28;20449;-81
2020/12/06 01:53:41;;;;;;;33.30;26.67;;;3.60;99.90;;;;;;4938723;28;20470;-81
2020/12/06 01:56:08;;;;;;;33.00;28.17;;;3.70;99.90;;;;;;4939078;28;20502;-82
2020/12/06 01:58:35;;;;;;;35.87;28.60;;;3.70;99.90;;;;;;4949850;28;20961;-82
2020/12/06 02:01:01;;;;;;;32.57;28.00;;;3.70;99.90;;;;;;4938450;28;20569;-81
2020/12/06 02:03:27;;;;;;;32.37;26.13;;;3.70;99.90;;;;;;4955467;28;20460;-81
2020/12/06 02:05:54;;;;;;;34.37;28.07;;;3.70;99.90;;;;;;4945814;28;20874;-82
2020/12/06 02:08:21;;;;;;;32.33;26.73;;;3.70;99.90;;;;;;4953801;28;20454;-81
2020/12/06 02:10:47;;;;;;;32.77;26.70;;;3.70;99.90;;;;;;4956324;29;21030;-81
2020/12/06 02:13:14;;;;;;;37.00;29.63;;;3.70;99.90;;;;;;5031519;23;20490;-77
2020/12/06 02:15:40;;;;;;;34.20;28.20;;;3.70;99.90;;;;;;5037603;28;20436;-77
2020/12/06 02:18:06;;;;;;;37.13;28.73;;;3.70;99.90;;;;;;5035994;28;20448;-77
2020/12/06 02:20:33;;;;;;;33.40;26.87;;;3.70;99.90;;;;;;5037583;28;20435;-77
2020/12/06 02:23:00;;;;;;;31.83;26.20;;;3.70;99.90;;;;;;5037545;28;20478;-77
2020/12/06 02:25:26;;;;;;;35.17;29.00;;;3.70;99.90;;;;;;5037043;28;20442;-77
2020/12/06 02:27:52;;;;;;;32.10;28.00;;;3.70;99.90;;;;;;5037994;28;20527;-77
2020/12/06 02:30:21;;;;;;;32.27;26.90;;;3.70;99.90;;;;;;5037253;28;20467;-77
2020/12/06 02:32:47;;;;;;;33.83;27.60;;;3.80;99.90;;;;;;5035985;28;20467;-77
2020/12/06 02:35:13;;;;;;;37.60;30.17;;;3.70;99.90;;;;;;5037623;28;20489;-77
2020/12/06 02:37:41;;;;;;;33.40;28.47;;;3.70;99.90;;;;;;5037722;28;20463;-77
2020/12/06 02:40:07;;;;;;;34.83;27.70;;;3.80;99.90;;;;;;5036891;28;20485;-78
2020/12/06 02:42:33;;;;;;;31.07;27.53;;;3.80;99.90;;;;;;5037098;28;20859;-77
2020/12/06 02:44:59;;;;;;;38.43;29.27;;;3.80;99.90;;;;;;5037479;28;20860;-77
2020/12/06 02:47:26;;;;;;;31.43;27.23;;;3.70;99.90;;;;;;5037669;28;20433;-77
2020/12/06 02:49:52;;;;;;;37.17;27.77;;;3.70;99.90;;;;;;5036975;28;20438;-78
2020/12/06 02:52:18;;;;;;;31.10;27.07;;;3.70;99.90;;;;;;5035691;28;20821;-78
2020/12/06 02:54:45;;;;;;;30.23;26.97;;;3.80;99.90;;;;;;5037063;28;20431;-76
2020/12/06 02:57:11;;;;;;;29.37;25.33;;;3.70;99.90;;;;;;5037057;28;20856;-78
2020/12/06 02:59:38;;;;;;;29.17;25.03;;;3.70;99.90;;;;;;5035942;28;20850;-77
2020/12/06 03:02:04;;;;;;;28.47;25.57;;;3.80;99.90;;;;;;5036748;28;20906;-78
2020/12/06 03:04:30;;;;;;;30.33;27.10;;;3.80;99.90;;;;;;5036484;28;20483;-77
2020/12/06 03:06:57;;;;;;;32.53;27.33;;;3.80;99.90;;;;;;5035868;28;20508;-77
2020/12/06 03:09:23;;;;;;;28.20;25.20;;;3.80;99.90;;;;;;5035165;28;20458;-77
2020/12/06 03:11:50;;;;;;;32.27;28.87;;;3.80;99.90;;;;;;5034848;28;20628;-77
2020/12/06 03:14:17;;;;;;;29.80;26.57;;;3.80;99.90;;;;;;5035986;28;20489;-78
2020/12/06 03:16:43;;;;;;;29.40;26.40;;;3.70;99.90;;;;;;5037219;28;20467;-76
2020/12/06 03:19:09;;;;;;;29.57;26.23;;;3.70;99.90;;;;;;5035965;28;20502;-76
2020/12/06 03:21:35;;;;;;;29.93;26.70;;;3.70;99.90;;;;;;5035350;28;20496;-78
2020/12/06 03:24:02;;;;;;;27.97;24.77;;;3.70;99.90;;;;;;5034291;28;20448;-77
2020/12/06 03:26:28;;;;;;;27.53;24.67;;;3.70;99.90;;;;;;5034124;28;20452;-78
2020/12/06 03:28:55;;;;;;;30.77;27.13;;;3.70;99.90;;;;;;5035646;28;20508;-78
2020/12/06 03:31:21;;;;;;;33.63;27.50;;;3.70;99.90;;;;;;5035565;28;20860;-77
2020/12/06 03:33:48;;;;;;;29.20;25.63;;;3.70;99.90;;;;;;5035144;28;20497;-77
2020/12/06 03:36:14;;;;;;;28.57;25.37;;;3.70;99.90;;;;;;5037246;28;20513;-77
2020/12/06 03:38:40;;;;;;;29.10;25.20;;;3.70;99.90;;;;;;5034481;28;20441;-77
2020/12/06 03:41:06;;;;;;;29.00;25.90;;;3.70;99.90;;;;;;5033046;28;20513;-78
2020/12/06 03:43:33;;;;;;;28.70;25.67;;;3.80;99.90;;;;;;5032085;28;20467;-79
2020/12/06 03:46:00;;;;;;;29.07;26.07;;;3.80;99.90;;;;;;5030170;28;20457;-76
2020/12/06 03:48:26;;;;;;;29.73;26.37;;;3.80;99.90;;;;;;5031617;28;20998;-77
2020/12/06 03:50:52;;;;;;;28.37;25.37;;;3.80;99.90;;;;;;5032426;28;20924;-77
2020/12/06 03:53:19;;;;;;;32.27;26.93;;;3.80;99.90;;;;;;5030387;28;20563;-77
2020/12/06 03:55:45;;;;;;;30.17;27.07;;;3.80;99.90;;;;;;5031111;28;20439;-77
2020/12/06 03:58:11;;;;;;;28.27;25.37;;;3.80;99.90;;;;;;5018944;28;20493;-77
2020/12/06 04:00:37;;;;;;;31.83;27.23;;;3.80;99.90;;;;;;5029766;28;20532;-77
2020/12/06 04:03:04;;;;;;;33.20;28.20;;;3.80;99.90;;;;;;5028541;28;20482;-77
2020/12/06 04:05:31;;;;;;;31.00;26.87;;;3.80;99.90;;;;;;5022945;28;20495;-77
2020/12/06 04:07:57;;;;;;;28.27;25.20;;;3.80;99.90;;;;;;5021740;28;20970;-77
2020/12/06 04:10:23;;;;;;;28.73;25.67;;;3.80;99.90;;;;;;5029779;28;20610;-76
2020/12/06 04:12:50;;;;;;;30.77;26.50;;;3.70;99.90;;;;;;5029363;28;20529;-75
2020/12/06 04:15:16;;;;;;;33.60;28.00;;;3.70;99.90;;;;;;5029864;28;20451;-78
2020/12/06 04:17:42;;;;;;;33.50;27.17;;;3.70;99.90;;;;;;5033493;28;20469;-77
2020/12/06 04:20:09;;;;;;;29.77;26.23;;;3.70;99.90;;;;;;5031522;28;20517;-76
2020/12/06 04:22:35;;;;;;;28.43;25.10;;;3.70;99.90;;;;;;5028731;28;20868;-77
2020/12/06 04:25:02;;;;;;;28.60;25.20;;;3.70;99.90;;;;;;5027340;28;20509;-76
2020/12/06 04:27:29;;;;;;;28.97;25.87;;;3.70;99.90;;;;;;5028629;28;21030;-77
2020/12/06 04:29:55;;;;;;;26.07;23.43;;;3.70;99.90;;;;;;5027527;28;20498;-76
2020/12/06 04:32:21;;;;;;;29.43;25.63;;;3.70;99.90;;;;;;5028401;28;20935;-77
2020/12/06 04:34:47;;;;;;;26.97;24.03;;;3.70;99.90;;;;;;5030181;28;20432;-77
2020/12/06 04:37:15;;;;;;;28.07;25.17;;;3.70;99.90;;;;;;5027997;28;20960;-77
2020/12/06 04:39:41;;;;;;;28.30;25.17;;;3.70;99.90;;;;;;5029895;28;20433;-76
2020/12/06 04:42:07;;;;;;;28.30;25.27;;;3.70;99.90;;;;;;5029484;28;20532;-76
2020/12/06 04:44:34;;;;;;;28.47;25.43;;;3.70;99.90;;;;;;5027963;28;20437;-77
2020/12/06 04:47:01;;;;;;;26.83;24.00;;;3.70;99.90;;;;;;5030073;28;20437;-77
2020/12/06 04:49:42;;;;;;;26.50;23.70;;;3.70;99.90;;;;;;5028614;28;20476;-77
2020/12/06 04:52:14;;;;;;;28.03;24.97;;;3.70;99.90;;;;;;5028550;28;20521;-76
2020/12/06 04:54:42;;;;;;;29.57;26.10;;;3.70;99.90;;;;;;5029296;28;20452;-77
2020/12/06 04:57:11;;;;;;;31.03;25.33;;;3.70;99.90;;;;;;5030027;28;20450;-76
2020/12/06 04:59:42;;;;;;;27.63;24.07;;;3.70;99.90;;;;;;5028728;28;20449;-76
2020/12/06 05:02:11;;;;;;;27.93;24.93;;;3.70;99.90;;;;;;5028074;28;20658;-77
2020/12/06 05:04:42;;;;;;;28.67;25.57;;;3.70;99.90;;;;;;5030044;28;20440;-77
2020/12/06 05:07:09;;;;;;;28.47;24.90;;;3.70;99.90;;;;;;5028056;28;20465;-77
2020/12/06 05:09:36;;;;;;;28.63;24.93;;;3.70;99.90;;;;;;5029663;28;20463;-78
2020/12/06 05:12:05;;;;;;;29.23;25.33;;;3.70;99.90;;;;;;5035614;28;20457;-77
2020/12/06 05:14:32;;;;;;;32.07;25.27;;;3.70;99.90;;;;;;5033644;28;20435;-77
2020/12/06 05:16:58;;;;;;;28.53;24.73;;;3.70;99.90;;;;;;5034869;28;20445;-77
2020/12/06 05:19:26;;;;;;;28.70;25.27;;;3.60;99.90;;;;;;5033688;28;20448;-77
2020/12/06 05:21:53;;;;;;;29.93;24.60;;;3.60;99.90;;;;;;5034325;28;20504;-77
2020/12/06 05:24:20;;;;;;;29.33;25.43;;;3.70;99.90;;;;;;5034862;28;20442;-78
2020/12/06 05:26:47;;;;;;;30.43;25.23;;;3.70;99.90;;;;;;5032752;28;20452;-76
2020/12/06 05:29:14;;;;;;;30.67;24.87;;;3.70;99.90;;;;;;5031607;28;20499;-76
2020/12/06 05:31:40;;;;;;;29.30;25.80;;;3.70;99.90;;;;;;5029188;28;20498;-76
2020/12/06 05:34:07;;;;;;;31.60;26.63;;;3.70;99.90;;;;;;5033681;28;20883;-78
2020/12/06 05:36:34;;;;;;;30.87;24.63;;;3.80;99.90;;;;;;5033051;28;20440;-78
2020/12/06 05:39:00;;;;;;;27.07;24.20;;;3.80;99.90;;;;;;5032615;28;20441;-77
2020/12/06 05:41:26;;;;;;;29.67;25.67;;;3.70;99.90;;;;;;5032308;28;20507;-78
2020/12/06 05:43:52;;;;;;;29.27;25.17;;;3.70;99.90;;;;;;5033652;28;20835;-78
2020/12/06 05:46:20;;;;;;;31.77;25.87;;;3.70;99.90;;;;;;5031985;28;20464;-76
2020/12/06 05:48:46;;;;;;;29.43;24.57;;;3.70;99.90;;;;;;5033971;28;20493;-76
2020/12/06 05:51:14;;;;;;;30.37;25.67;;;3.70;99.90;;;;;;5036738;28;20451;-76
2020/12/06 05:53:40;;;;;;;28.67;25.67;;;3.70;99.90;;;;;;5036956;28;20461;-78
2020/12/06 05:56:12;;;;;;;31.13;25.43;;;3.70;99.90;;;;;;5035819;28;20448;-77
2020/12/06 05:58:40;;;;;;;31.50;25.30;;;3.70;99.90;;;;;;5034689;28;20439;-76
2020/12/06 06:01:07;;;;;;;29.90;24.97;;;3.70;99.90;;;;;;5036555;28;20439;-77
2020/12/06 06:03:36;;;;;;;30.17;25.23;;;3.70;99.90;;;;;;5035648;28;20574;-78
2020/12/06 06:06:04;;;;;;;32.60;27.30;;;3.70;99.90;;;;;;5033137;28;20443;-76
2020/12/06 06:08:32;;;;;;;26.43;23.23;;;3.70;99.90;;;;;;5032148;28;20461;-77
2020/12/06 06:11:21;;;;;;;27.60;24.33;;;3.70;99.90;;;;;;5033863;28;20436;-77
2020/12/06 06:13:52;;;;;;;27.40;24.43;;;3.70;99.90;;;;;;5031377;28;20533;-76
2020/12/06 06:16:20;;;;;;;27.97;23.93;;;3.80;99.90;;;;;;5032812;28;20815;-76
2020/12/06 06:18:51;;;;;;;28.23;24.60;;;3.80;99.90;;;;;;5031919;28;20436;-76
2020/12/06 06:21:19;;;;;;;26.90;24.10;;;3.70;99.90;;;;;;5030136;28;20452;-76
2020/12/06 06:23:48;;;;;;;31.43;24.83;;;3.70;99.90;;;;;;5032118;28;20551;-77
2020/12/06 06:26:16;;;;;;;28.30;25.33;;;3.70;99.90;;;;;;5033672;28;20469;-76
2020/12/06 06:28:44;;;;;;;31.80;26.13;;;3.70;99.90;;;;;;5031162;28;20536;-77
2020/12/06 06:31:11;;;;;;;31.43;26.17;;;3.70;99.90;;;;;;5032044;28;20431;-76
2020/12/06 06:33:39;;;;;;;30.33;26.13;;;3.70;99.90;;;;;;5031066;28;20466;-76
2020/12/06 06:36:09;;;;;;;27.87;24.93;;;3.70;99.90;;;;;;5032282;28;20487;-76
2020/12/06 06:38:40;;;;;;;29.73;26.53;;;3.70;99.90;;;;;;5031817;28;20808;-77
2020/12/06 06:41:07;;;;;;;30.23;25.63;;;3.70;99.90;;;;;;5031388;28;20494;-77
2020/12/06 06:43:34;;;;;;;31.90;26.67;;;3.70;99.90;;;;;;5031008;28;20481;-76
2020/12/06 06:46:12;;;;;;;28.70;25.17;;;3.70;99.90;;;;;;5032394;28;20435;-76
2020/12/06 06:48:38;;;;;;;32.33;27.40;;;3.70;99.90;;;;;;5019153;28;20870;-76
2020/12/06 06:51:06;;;;;;;31.30;25.93;;;3.80;99.90;;;;;;5031934;28;20442;-77
2020/12/06 06:53:32;;;;;;;28.30;24.43;;;3.80;99.90;;;;;;5030630;28;20563;-77
2020/12/06 06:56:01;;;;;;;32.73;27.27;;;3.80;99.90;;;;;;5031974;28;20527;-76
2020/12/06 06:58:30;;;;;;;30.73;26.00;;;3.80;99.90;;;;;;5031655;28;20963;-76
2020/12/06 07:01:16;;;;;;;31.80;26.83;;;3.80;99.90;;;;;;5031551;28;20508;-77
2020/12/06 07:03:43;;;;;;;29.90;26.60;;;3.80;99.90;;;;;;5031588;28;20976;-76
2020/12/06 07:06:10;;;;;;;28.30;24.23;;;3.80;99.90;;;;;;5034757;28;20454;-76
2020/12/06 07:08:36;;;;;;;29.80;25.80;;;3.80;99.90;;;;;;5033151;28;20438;-76
2020/12/06 07:11:04;;;;;;;29.77;26.57;;;3.80;99.90;;;;;;5030138;28;20454;-76
2020/12/06 07:13:32;;;;;;;29.27;26.03;;;3.80;99.90;;;;;;5031141;28;20475;-75
2020/12/06 07:15:58;;;;;;;29.67;26.47;;;3.80;99.90;;;;;;5033401;28;20434;-77
2020/12/06 07:18:24;;;;;;;28.73;25.67;;;3.80;99.90;;;;;;5033111;28;20458;-77
2020/12/06 07:20:50;;;;;;;27.47;24.43;;;3.80;99.90;;;;;;5033213;28;20446;-82
2020/12/06 07:23:18;;;;;;;28.80;25.73;;;3.80;99.90;;;;;;5033416;28;20483;-76
2020/12/06 07:25:44;;;;;;;28.43;25.43;;;3.80;99.90;;;;;;5035592;28;20431;-78
2020/12/06 07:28:11;;;;;;;29.67;24.70;;;3.80;99.90;;;;;;5036156;28;20503;-76
2020/12/06 07:30:43;;;;;;;30.90;25.67;;;3.80;99.90;;;;;;5039429;28;20531;-77
2020/12/06 07:33:09;;;;;;;31.57;25.67;;;3.80;99.90;;;;;;5037601;28;20464;-77
2020/12/06 07:35:35;;;;;;;31.17;27.17;;;3.90;99.90;;;;;;5036544;28;20509;-77
2020/12/06 07:38:01;;;;;;;30.43;27.03;;;3.90;99.90;;;;;;5035857;28;20446;-78
2020/12/06 07:40:29;;;;;;;34.23;30.07;;;3.90;99.90;;;;;;5032171;28;20452;-77
2020/12/06 07:42:55;;;;;;;38.17;30.40;;;3.90;99.90;;;;;;5032306;28;20482;-77
2020/12/06 07:45:25;;;;;;;36.60;29.23;;;3.90;99.90;;;;;;5033031;28;20452;-77
2020/12/06 07:47:51;;;;;;;36.17;29.00;;;3.90;99.90;;;;;;5036575;28;20972;-77
2020/12/06 07:50:18;;;;;;;33.03;28.37;;;3.90;99.90;;;;;;5032172;28;20473;-77
2020/12/06 07:52:44;;;;;;;31.93;27.13;;;3.90;99.90;;;;;;5036925;28;20523;-77
2020/12/06 07:55:11;;;;;;;30.03;26.03;;;3.90;99.90;;;;;;5036740;28;20882;-78
2020/12/06 07:57:46;;;;;;;30.63;27.13;;;3.90;99.90;;;;;;5034586;28;20450;-79
2020/12/06 08:00:14;;;;;;;34.57;26.97;;;3.90;99.90;;;;;;5035215;28;20474;-78
2020/12/06 08:02:42;;;;;;;32.50;26.40;;;4.00;99.90;;;;;;5033022;28;20546;-77
2020/12/06 08:05:13;;;;;;;28.17;24.80;;;4.00;99.90;;;;;;5031875;28;20467;-78
2020/12/06 08:07:42;;;;;;;30.13;25.73;;;3.90;99.90;;;;;;5031204;28;20508;-78
2020/12/06 08:10:13;;;;;;;30.40;26.43;;;3.90;99.90;;;;;;5033167;28;20439;-77
2020/12/06 08:12:43;;;;;;;30.97;26.90;;;4.00;99.90;;;;;;5028366;28;20472;-77
2020/12/06 08:15:10;;;;;;;31.00;25.87;;;4.00;99.90;;;;;;5026702;28;20433;-77
2020/12/06 08:17:47;;;;;;;30.00;26.90;;;4.00;99.90;;;;;;5033690;23;20561;-78
2020/12/06 08:20:15;;;;;;;31.43;28.10;;;4.00;99.90;;;;;;4994361;28;20461;-81
2020/12/06 08:22:49;;;;;;;29.23;26.10;;;4.00;99.90;;;;;;5008943;28;20478;-80
2020/12/06 08:25:16;;;;;;;33.70;27.63;;;4.00;99.90;;;;;;5008465;28;20435;-79
2020/12/06 08:27:44;;;;;;;31.97;26.43;;;4.00;99.90;;;;;;4982788;28;20475;-83
2020/12/06 08:30:12;;;;;;;31.90;27.03;;;4.10;99.90;;;;;;4975059;28;20459;-83
2020/12/06 08:32:38;;;;;;;38.20;29.17;;;4.10;99.90;;;;;;4999236;28;20452;-83
2020/12/06 08:35:04;;;;;;;33.77;28.60;;;4.10;99.90;;;;;;4977145;28;20459;-83
2020/12/06 08:37:34;;;;;;;32.63;27.73;;;4.10;99.90;;;;;;4982150;28;20486;-82
2020/12/06 08:40:02;;;;;;;32.83;26.43;;;4.10;99.90;;;;;;4992347;28;20432;-81
2020/12/06 08:42:29;;;;;;;32.67;27.27;;;4.20;99.90;;;;;;5002041;28;20535;-81
2020/12/06 08:44:58;;;;;;;31.87;26.93;;;4.20;99.90;;;;;;4988241;28;20964;-81
2020/12/06 08:47:27;;;;;;;34.27;27.97;;;4.20;99.90;;;;;;4985356;28;20929;-81
2020/12/06 08:50:04;;;;;;;31.07;26.50;;;4.30;99.90;;;;;;4990394;28;20450;-82
2020/12/06 08:52:31;;;;;;;30.43;27.27;;;4.30;99.90;;;;;;5003868;28;20450;-82
2020/12/06 08:54:58;;;;;;;30.50;27.20;;;4.30;99.90;;;;;;5006979;28;20531;-78
2020/12/06 08:57:26;;;;;;;32.10;26.80;;;4.40;99.90;;;;;;5012523;28;20487;-78
2020/12/06 08:59:53;;;;;;;28.00;25.20;;;4.60;99.90;;;;;;4989515;28;20448;-81
2020/12/06 09:02:24;;;;;;;27.83;24.90;;;4.60;99.90;;;;;;4987578;28;20216;-80
2020/12/06 09:04:52;;;;;;;29.63;26.53;;;4.80;99.90;;;;;;4998138;28;20505;-82
2020/12/06 09:07:18;;;;;;;29.07;25.90;;;4.80;99.90;;;;;;4979097;28;20307;-82
2020/12/06 09:09:44;;;;;;;27.07;24.20;;;4.80;99.90;;;;;;4977247;28;20498;-83
2020/12/06 09:12:10;;;;;;;25.80;23.23;;;4.90;99.90;;;;;;4984596;28;20509;-83
2020/12/06 09:14:37;;;;;;;25.90;23.30;;;4.90;99.90;;;;;;4980013;28;20964;-81
2020/12/06 09:17:04;;;;;;;26.47;23.73;;;4.90;99.90;;;;;;4979997;28;20506;-82
2020/12/06 09:19:31;;;;;;;27.50;24.60;;;4.80;99.90;;;;;;4976646;28;20441;-81
2020/12/06 09:21:58;;;;;;;24.33;21.93;;;4.80;99.90;;;;;;4975709;28;20555;-80
2020/12/06 09:24:24;;;;;;;24.53;22.23;;;4.80;99.90;;;;;;4978665;28;21006;-82
2020/12/06 09:26:51;;;;;;;25.13;22.60;;;4.80;99.90;;;;;;4978265;28;20472;-82
2020/12/06 09:29:17;;;;;;;25.57;23.03;;;4.80;99.90;;;;;;4978924;28;20479;-82
2020/12/06 09:31:43;;;;;;;28.10;24.93;;;4.80;99.90;;;;;;4978470;28;20448;-82
2020/12/06 09:34:10;;;;;;;27.03;24.23;;;4.70;99.90;;;;;;4978440;28;20444;-82
2020/12/06 09:36:43;;;;;;;27.33;24.47;;;4.70;99.90;;;;;;4975144;28;20463;-82
2020/12/06 09:39:10;;;;;;;29.03;25.17;;;4.70;99.90;;;;;;4985913;28;20443;-82
2020/12/06 09:41:38;;;;;;;26.37;23.67;;;4.80;99.90;;;;;;4991181;28;20464;-81
2020/12/06 09:44:07;;;;;;;27.60;24.70;;;4.70;99.90;;;;;;5010520;28;20531;-81
2020/12/06 09:46:33;;;;;;;27.13;24.23;;;4.80;99.90;;;;;;5001070;28;21042;-82
2020/12/06 09:49:05;;;;;;;27.80;24.80;;;4.70;99.90;;;;;;4996002;28;20443;-82
2020/12/06 09:51:31;;;;;;;26.80;24.10;;;4.80;99.90;;;;;;4993599;28;21185;-81
2020/12/06 09:54:00;;;;;;;26.80;23.87;;;4.80;99.90;;;;;;4994972;28;20463;-82
2020/12/06 09:56:52;;;;;;;26.83;24.03;;;4.80;99.90;;;;;;5008348;28;20461;-81
2020/12/06 09:59:23;;;;;;;26.20;23.60;;;4.90;99.90;;;;;;5005855;28;20446;-81
2020/12/06 10:01:49;;;;;;;25.03;22.53;;;4.90;99.90;;;;;;4978002;28;20440;-80
2020/12/06 10:04:15;;;;;;;24.30;22.00;;;5.00;99.90;;;;;;4990851;28;20475;-80
2020/12/06 10:06:41;;;;;;;25.67;23.17;;;5.00;99.90;;;;;;4993551;28;21401;-81
2020/12/06 10:09:08;;;;;;;22.97;20.90;;;4.90;99.90;;;;;;4998241;28;20436;-81
2020/12/06 10:11:35;;;;;;;23.60;21.30;;;4.90;99.90;;;;;;4977035;28;20448;-81
2020/12/06 10:14:02;;;;;;;22.77;20.67;;;4.90;99.90;;;;;;4994332;28;20448;-81
2020/12/06 10:16:29;;;;;;;21.50;19.50;;;4.90;99.90;;;;;;4976533;28;20487;-80
2020/12/06 10:18:55;;;;;;;19.67;18.00;;;4.90;99.90;;;;;;4985729;28;20514;-80
2020/12/06 10:21:21;;;;;;;21.00;19.07;;;4.90;99.90;;;;;;4988936;28;20501;-80
2020/12/06 10:23:47;;;;;;;22.53;20.37;;;4.80;99.90;;;;;;4997339;28;21074;-81
2020/12/06 10:26:14;;;;;;;22.30;20.40;;;4.80;99.90;;;;;;5002002;28;21003;-81
2020/12/06 10:28:41;;;;;;;19.80;18.10;;;4.80;99.90;;;;;;4993432;28;20456;-80
2020/12/06 10:31:08;;;;;;;19.83;18.23;;;4.90;99.90;;;;;;4993826;28;20439;-80
2020/12/06 10:33:34;;;;;;;18.30;16.80;;;4.90;99.90;;;;;;4989188;28;20475;-81
2020/12/06 10:36:00;;;;;;;17.93;16.43;;;5.00;99.90;;;;;;4992332;28;20444;-81
2020/12/06 10:38:27;;;;;;;18.23;16.63;;;5.00;99.90;;;;;;4994271;28;20544;-80
2020/12/06 10:40:53;;;;;;;16.57;15.33;;;5.10;99.90;;;;;;4976426;28;20456;-80
2020/12/06 10:43:20;;;;;;;17.10;15.70;;;5.10;99.90;;;;;;4976449;28;20560;-80
2020/12/06 10:45:46;;;;;;;17.57;16.17;;;5.10;99.90;;;;;;4971044;28;20448;-81
2020/12/06 10:48:13;;;;;;;17.20;15.90;;;5.10;99.90;;;;;;4975811;28;20213;-80
2020/12/06 10:50:39;;;;;;;19.10;17.60;;;5.10;99.90;;;;;;4976579;28;20448;-81
2020/12/06 10:53:05;;;;;;;19.00;17.40;;;5.20;99.90;;;;;;4975951;28;20479;-80
2020/12/06 10:55:31;;;;;;;19.30;17.70;;;5.10;99.90;;;;;;4993915;28;20452;-80
2020/12/06 10:57:58;;;;;;;17.83;16.50;;;5.10;99.90;;;;;;4977039;28;20460;-80
2020/12/06 11:00:25;;;;;;;19.47;17.37;;;5.20;99.90;;;;;;4975636;28;20448;-80
2020/12/06 11:02:51;;;;;;;20.67;18.67;;;5.20;99.90;;;;;;4993327;28;20473;-81
2020/12/06 11:05:18;;;;;;;19.03;17.27;;;5.30;99.90;;;;;;4976193;28;20447;-81
2020/12/06 11:07:44;;;;;;;18.27;16.67;;;5.30;99.90;;;;;;4993530;28;20906;-80
2020/12/06 11:10:10;;;;;;;17.60;16.20;;;5.40;99.90;;;;;;4975801;28;20526;-80
2020/12/06 11:12:36;;;;;;;16.70;15.50;;;5.50;99.90;;;;;;4977036;28;20472;-81
2020/12/06 11:15:03;;;;;;;16.07;14.77;;;5.50;99.90;;;;;;4976575;28;20441;-81
2020/12/06 11:17:30;;;;;;;16.40;14.80;;;5.50;99.90;;;;;;4973800;28;20477;-81
2020/12/06 11:19:58;;;;;;;15.00;13.93;;;5.50;99.90;;;;;;4993402;28;20425;-81
2020/12/06 11:22:25;;;;;;;15.07;13.97;;;5.50;99.90;;;;;;4975998;28;20217;-81
2020/12/06 11:24:51;;;;;;;15.33;14.30;;;5.60;99.90;;;;;;4976643;28;20225;-81
2020/12/06 11:27:18;;;;;;;15.03;14.03;;;5.60;99.90;;;;;;4993482;28;20329;-81
2020/12/06 11:29:44;;;;;;;15.33;14.33;;;5.70;99.90;;;;;;4975907;28;20503;-82
2020/12/06 11:32:11;;;;;;;14.37;13.47;;;5.70;99.90;;;;;;4993512;28;20937;-81
2020/12/06 11:34:38;;;;;;;14.23;13.33;;;5.70;99.90;;;;;;4993319;28;20201;-81
2020/12/06 11:37:04;;;;;;;15.67;14.50;;;5.80;99.90;;;;;;4975604;28;20476;-81
2020/12/06 11:39:31;;;;;;;13.87;12.97;;;5.70;99.90;;;;;;4976943;28;20448;-80
2020/12/06 11:41:57;;;;;;;14.17;13.27;;;5.70;99.90;;;;;;4977204;28;20202;-81
2020/12/06 11:44:24;;;;;;;14.97;13.97;;;5.70;99.90;;;;;;4993448;28;20197;-81
2020/12/06 11:46:51;;;;;;;14.63;13.63;;;5.70;99.90;;;;;;4976351;28;20279;-81
2020/12/06 11:49:17;;;;;;;14.80;13.80;;;5.70;99.90;;;;;;4977852;28;20201;-81
2020/12/06 11:51:44;;;;;;;14.77;13.77;;;5.60;99.90;;;;;;4975833;28;20288;-81
2020/12/06 11:54:11;;;;;;;14.83;13.83;;;5.70;99.90;;;;;;4992647;28;20437;-81
2020/12/06 11:56:37;;;;;;;13.73;12.83;;;5.70;99.90;;;;;;4992615;28;20460;-81
2020/12/06 11:59:03;;;;;;;15.83;14.83;;;5.70;99.90;;;;;;4974743;28;20519;-81
2020/12/06 12:01:30;;;;;;;13.47;12.67;;;5.70;99.90;;;;;;4992972;28;20259;-81
2020/12/06 12:03:56;;;;;;;14.03;13.13;;;5.70;99.90;;;;;;4975735;28;20241;-82
2020/12/06 12:06:22;;;;;;;7.80;7.13;;;5.70;99.90;;;;;;4974918;28;20465;-80
2020/12/06 12:08:51;;;;;;;7.97;7.27;;;5.70;99.90;;;;;;4992319;28;20263;-81
2020/12/06 12:11:19;;;;;;;9.07;8.27;;;5.70;99.90;;;;;;4975985;28;20255;-81
2020/12/06 12:13:45;;;;;;;9.03;8.17;;;5.70;99.90;;;;;;4991699;28;20634;-82
2020/12/06 12:16:11;;;;;;;8.13;7.33;;;5.70;99.90;;;;;;4991398;28;20213;-81
2020/12/06 12:18:37;;;;;;;7.80;7.10;;;5.70;99.90;;;;;;4973928;28;20205;-81
2020/12/06 12:21:04;;;;;;;8.20;7.50;;;5.60;99.90;;;;;;4974762;28;20205;-80
2020/12/06 12:23:30;;;;;;;7.63;7.00;;;5.70;99.90;;;;;;4975049;28;20300;-79
2020/12/06 12:25:57;;;;;;;7.97;7.37;;;5.70;99.90;;;;;;4975934;28;20209;-81
2020/12/06 12:28:23;;;;;;;8.00;7.30;;;5.70;99.90;;;;;;4989064;28;20205;-82
2020/12/06 12:30:49;;;;;;;7.90;7.20;;;5.80;99.90;;;;;;5011697;28;20315;-81
2020/12/06 12:33:16;;;;;;;8.97;8.17;;;5.90;99.90;;;;;;4991493;28;20665;-81
2020/12/06 12:35:42;;;;;;;9.03;8.13;;;5.90;99.90;;;;;;5002791;28;20205;-82
2020/12/06 12:38:08;;;;;;;7.53;6.40;;;6.00;99.90;;;;;;4991546;28;20209;-82